Terminal Aerodrome Forecast
Issued by NWS

Home | Current Version | Previous Version | Text Only | Print | Product List | Glossary On
Versions: 1 2 3 4 5 6 7 8 9 10 11 12 13 14 15 16 17 18 19 20 21 22 23 24 25 26 27 28
000
FTUS45 KGJT 281738
TAFCNY
TAF
KCNY 281738Z 2818/0118 12011KT 3SM -SN BR BKN025 OVC040
      TEMPO 2818/2819 6SM -SN SCT030 BKN050
     FM281900 05005KT P6SM VCSH SCT025 OVC050
      TEMPO 2819/2823 2SM -SHRASN BR OVC025
     FM010100 30004KT 5SM -RA OVC025
     FM010700 24003KT 3SM -SN BR OVC015=

USA.gov is the U.S. government's official web portal to all federal, state and local government web resources and services.